Little River, TX (76554)

7:23 AM CDT on May 04, 2015 (GMT -0500)
Wilson Valley | | Change Station
CLOSE
Current Station
Personal Weather Station
Location: Little River-Academy, TX
Elevation: 476 ft
Nearby Weather Stations

Elev 476 ft 30.97 °N, 97.38 °W | Updated 6 seconds ago

Mostly Cloudy
Mostly Cloudy
63.1 °F
Feels Like 63.1 °F
N
0.0
Wind Variable Wind from NW
Gusts 0.0 mph

Today
High -- | Low -- °F
--% Chance of Precip.
Yesterday
High -- | Low -- °F
Precip. -- in
6:42 AM 8:10 PM
Full, 100% visible
Pressure 30.04 in
Visibility 9.0 miles
Clouds Mostly Cloudy 800 ft
Overcast 1600 ft
Dew Point 62 °F
Humidity 97%
Rainfall 0.00 in
Snow Depth Not available.
UV 0 out of 12
Pollen 7.00 out of 12
Air Quality Not available.
Flu Activity Sporadic
METAR KTPL 041215Z AUTO 14005KT 9SM BKN008 OVC016 18/15 A3004 RMK AO1

More Conditions Fewer Conditions

Pressure 30.04 in
Visibility 9.0 miles
Clouds Mostly Cloudy 800 ft
Overcast 1600 ft
Dew Point 62 °F
Humidity 97%
Rainfall 0.00 in
Snow Depth Not available.
UV 0 out of 12
Pollen 7.00 out of 12
Air Quality Not available.
Flu Activity Sporadic
METAR KTPL 041215Z AUTO 14005KT 9SM BKN008 OVC016 18/15 A3004 RMK AO1

More Conditions Fewer Conditions

Nepal has a long way to go to dig out and rebuild from a devastating earthquake. We have teamed up with several charities and organizations to make contributing to the relief effort as easy as possible.
How you can help: Portlight Strategies | Red Cross

10-Day Weather Forecast

Almanac

Astronomy

May. 04, 2015 Rise Set
Actual Time
Civil Twilight
Nautical Twilight
Astronomical Twilight
Moon
Length of Visible Light
Length of Day
Tomorrow will be .
, % of the Moon is Illuminated

Today's Extremes

State Highs State Lows

Community

WunderPhotos

Upload Photos

1,818,582 photos uploaded!

WunderBlogs® & News

Nearby

Air Quality

  Air Quality AQ Index Pollutant
Not available.

Snow Depth

Station Depth Elevation

Earthquake Activity

City Distance Mag. Time & Date
Minimum magnitude displayed is 2.5.

Coastal Water Temperatures

Place Temperature

Stations

Nearby Weather Stations

Station Location Temp. Windchill Dew Point Humidity Wind Precip. Elev Updated Type